createdAt,value
2019-03-11T00:01:32.846Z,13.20
2019-03-11T00:04:04.411Z,13.10
2019-03-11T00:06:54.781Z,13.00
2019-03-11T00:09:21.285Z,13.00
2019-03-11T00:11:51.990Z,13.00
2019-03-11T00:14:24.982Z,13.00
2019-03-11T00:16:54.770Z,12.90
2019-03-11T00:19:30.048Z,12.90
2019-03-11T00:22:10.622Z,12.90
2019-03-11T00:24:41.229Z,12.90
2019-03-11T00:27:14.150Z,12.90
2019-03-11T00:29:44.597Z,12.90
2019-03-11T00:32:21.879Z,12.90
2019-03-11T00:34:50.840Z,13.00
2019-03-11T00:37:22.137Z,12.90
2019-03-11T00:39:53.013Z,12.90
2019-03-11T00:42:26.643Z,12.90
2019-03-11T00:44:55.550Z,12.90
2019-03-11T00:47:31.616Z,12.90
2019-03-11T00:50:04.455Z,12.80
2019-03-11T00:52:44.679Z,12.80
2019-03-11T00:55:23.839Z,12.90
2019-03-11T00:58:01.526Z,12.90
2019-03-11T01:00:33.947Z,12.90
2019-03-11T01:03:02.502Z,12.90
2019-03-11T01:05:31.221Z,12.80
2019-03-11T01:08:02.647Z,12.80
2019-03-11T01:10:39.355Z,12.80
2019-03-11T01:13:11.384Z,12.70
2019-03-11T01:15:39.645Z,12.70
2019-03-11T01:18:11.470Z,12.70
2019-03-11T01:20:54.347Z,12.70
2019-03-11T01:23:41.378Z,12.70
2019-03-11T01:26:14.086Z,12.70
2019-03-11T01:28:51.890Z,12.70
2019-03-11T01:31:21.135Z,12.70
2019-03-11T01:33:49.249Z,12.60
2019-03-11T01:36:21.582Z,12.70
2019-03-11T01:38:52.253Z,12.60
2019-03-11T01:41:24.233Z,12.60
2019-03-11T01:43:54.413Z,12.60
2019-03-11T01:46:25.752Z,12.60
2019-03-11T01:49:00.888Z,12.60
2019-03-11T01:51:29.291Z,12.60
2019-03-11T01:53:57.792Z,12.50
2019-03-11T01:56:26.302Z,12.40
2019-03-11T01:59:05.094Z,12.40
2019-03-11T02:01:34.773Z,12.30
2019-03-11T02:04:02.954Z,12.30
2019-03-11T02:06:35.824Z,12.20
2019-03-11T02:09:05.917Z,12.20
2019-03-11T02:11:38.351Z,12.10
2019-03-11T02:14:06.926Z,12.10
2019-03-11T02:16:46.718Z,12.00
2019-03-11T02:19:22.998Z,11.90
2019-03-11T02:21:56.942Z,11.70
2019-03-11T02:24:25.342Z,11.80
2019-03-11T02:26:53.494Z,11.70
2019-03-11T02:29:21.986Z,11.70
2019-03-11T02:31:53.422Z,11.60
2019-03-11T02:34:21.830Z,11.70
2019-03-11T02:36:50.327Z,11.60
2019-03-11T02:39:18.890Z,11.50
2019-03-11T02:41:47.064Z,11.40
2019-03-11T02:44:15.748Z,11.30
2019-03-11T02:46:44.267Z,11.20
2019-03-11T02:49:15.978Z,11.20
2019-03-11T02:51:44.242Z,11.20
2019-03-11T02:54:12.343Z,11.10
2019-03-11T02:56:40.495Z,11.10
2019-03-11T02:59:09.166Z,10.90
2019-03-11T03:01:56.596Z,11.00
2019-03-11T03:04:36.127Z,10.80
2019-03-11T03:07:09.952Z,10.70
2019-03-11T03:12:33.771Z,10.60
2019-03-11T03:15:10.451Z,10.60
2019-03-11T03:18:01.605Z,10.60
2019-03-11T03:20:30.433Z,10.60
2019-03-11T03:23:01.533Z,10.60
2019-03-11T03:25:34.356Z,10.60
2019-03-11T03:28:00.573Z,10.50
2019-03-11T03:30:28.965Z,10.40
2019-03-11T03:32:57.180Z,10.40
2019-03-11T03:35:25.380Z,10.30
2019-03-11T03:37:53.543Z,10.20
2019-03-11T03:40:28.415Z,10.20
2019-03-11T03:43:00.908Z,10.10
2019-03-11T03:45:40.491Z,10.00
2019-03-11T03:48:08.853Z,9.90
2019-03-11T03:50:38.227Z,9.80
2019-03-11T03:53:06.631Z,9.80
2019-03-11T03:58:21.019Z,9.70
2019-03-11T04:00:49.273Z,9.60
2019-03-11T04:03:21.631Z,9.50
2019-03-11T04:05:49.862Z,9.40
2019-03-11T04:08:18.024Z,9.40
2019-03-11T04:10:46.242Z,9.30
2019-03-11T04:13:39.991Z,9.30
2019-03-11T04:16:03.421Z,9.10
2019-03-11T04:18:54.360Z,9.10
2019-03-11T04:21:23.362Z,9.10
2019-03-11T04:24:05.425Z,9.10
2019-03-11T04:26:37.007Z,9.10
2019-03-11T04:29:10.519Z,8.90
2019-03-11T04:31:38.979Z,8.90
2019-03-11T04:34:07.142Z,8.90
2019-03-11T04:36:36.127Z,8.80
2019-03-11T04:39:06.072Z,8.70
2019-03-11T04:41:34.189Z,8.70
2019-03-11T04:44:06.766Z,8.50
2019-03-11T04:46:39.191Z,8.50
2019-03-11T04:49:07.821Z,8.60
2019-03-11T04:51:36.026Z,8.60
2019-03-11T04:54:04.274Z,8.50
2019-03-11T04:56:32.466Z,8.40
2019-03-11T04:59:11.210Z,8.20
2019-03-11T05:01:39.543Z,8.20
2019-03-11T05:04:13.903Z,8.30
2019-03-11T05:06:44.025Z,8.30
2019-03-11T05:09:12.805Z,8.20
2019-03-11T05:11:41.066Z,8.20
2019-03-11T05:14:09.330Z,8.20
2019-03-11T05:16:37.422Z,8.20
2019-03-11T05:19:05.900Z,8.10
2019-03-11T05:21:34.034Z,8.20
2019-03-11T05:24:02.166Z,8.20
2019-03-11T05:26:30.254Z,8.30
2019-03-11T05:28:58.494Z,8.40
2019-03-11T05:31:26.678Z,8.40
2019-03-11T05:33:54.826Z,8.40
2019-03-11T05:36:23.573Z,8.40
2019-03-11T05:38:52.049Z,8.40
2019-03-11T05:41:20.886Z,8.30
2019-03-11T05:43:49.018Z,8.40
2019-03-11T05:46:17.102Z,8.50
2019-03-11T05:48:45.257Z,8.60
2019-03-11T05:51:13.742Z,8.60
2019-03-11T05:53:41.874Z,8.70
2019-03-11T05:56:09.958Z,8.70
2019-03-11T05:58:38.208Z,8.70
2019-03-11T06:01:06.277Z,8.80
2019-03-11T06:03:34.640Z,8.90
2019-03-11T06:06:02.881Z,8.90
2019-03-11T06:08:31.078Z,8.90
2019-03-11T06:10:59.161Z,8.90
2019-03-11T06:13:35.646Z,8.90
2019-03-11T06:15:57.339Z,9.00
2019-03-11T06:18:50.875Z,9.00
2019-03-11T06:21:38.322Z,9.00
2019-03-11T06:24:06.454Z,8.90
2019-03-11T06:26:34.745Z,9.00
2019-03-11T06:29:02.990Z,8.90
2019-03-11T06:31:31.269Z,8.90
2019-03-11T06:33:59.514Z,8.90
2019-03-11T06:36:27.617Z,8.90
2019-03-11T06:39:05.360Z,9.00
2019-03-11T06:41:25.726Z,9.00
2019-03-11T06:43:53.826Z,9.00
2019-03-11T06:46:22.133Z,8.90
2019-03-11T06:48:50.213Z,8.90
2019-03-11T06:51:18.367Z,8.90
2019-03-11T06:53:46.472Z,8.90
2019-03-11T06:56:14.615Z,9.00
2019-03-11T06:58:42.703Z,9.10
2019-03-11T07:01:10.850Z,9.20
2019-03-11T07:03:38.935Z,9.30
2019-03-11T07:06:07.175Z,9.40
2019-03-11T07:08:35.269Z,9.50
2019-03-11T07:11:03.685Z,9.70
2019-03-11T07:13:31.772Z,9.70
2019-03-11T07:16:00.402Z,9.90
2019-03-11T07:18:29.265Z,9.90
2019-03-11T07:20:57.435Z,10.10
2019-03-11T07:23:25.877Z,10.20
2019-03-11T07:25:54.022Z,10.20
2019-03-11T07:28:22.664Z,10.30
2019-03-11T07:30:50.902Z,10.50
2019-03-11T07:33:19.405Z,10.60
2019-03-11T07:35:47.837Z,10.60
2019-03-11T07:38:15.926Z,10.80
2019-03-11T07:40:44.526Z,10.90
2019-03-11T07:43:13.516Z,11.00
2019-03-11T07:45:41.646Z,11.20
2019-03-11T07:48:10.398Z,11.30
2019-03-11T07:50:38.541Z,11.30
2019-03-11T07:53:06.978Z,11.40
2019-03-11T07:55:35.127Z,11.60
2019-03-11T07:58:03.422Z,11.80
2019-03-11T08:00:31.569Z,12.10
2019-03-11T08:02:59.757Z,12.30
2019-03-11T08:05:27.945Z,12.50
2019-03-11T08:07:56.467Z,12.80
2019-03-11T08:10:24.637Z,13.00
2019-03-11T08:12:53.061Z,13.30
2019-03-11T08:15:21.416Z,13.50
2019-03-11T08:17:49.497Z,13.70
2019-03-11T08:20:17.794Z,13.90
2019-03-11T08:22:46.034Z,14.00
2019-03-11T08:25:14.326Z,14.10
2019-03-11T08:27:42.680Z,14.20
2019-03-11T08:30:11.733Z,14.40
2019-03-11T08:32:39.863Z,14.60
2019-03-11T08:35:10.288Z,14.60
2019-03-11T08:37:38.782Z,14.60
2019-03-11T08:40:07.843Z,14.70
2019-03-11T08:42:36.094Z,14.80
2019-03-11T08:45:05.040Z,14.90
2019-03-11T08:47:33.213Z,15.00
2019-03-11T08:50:01.764Z,15.00
2019-03-11T08:52:30.022Z,15.00
2019-03-11T08:54:58.118Z,15.00
2019-03-11T08:57:26.339Z,15.10
2019-03-11T08:59:54.443Z,15.20
2019-03-11T09:02:22.590Z,15.20
2019-03-11T09:04:50.703Z,15.10
2019-03-11T09:07:19.123Z,15.10
2019-03-11T09:09:47.214Z,15.00
2019-03-11T09:12:15.845Z,15.10
2019-03-11T09:14:43.944Z,15.30
2019-03-11T09:17:12.199Z,15.40
2019-03-11T09:19:40.318Z,15.50
2019-03-11T09:22:08.500Z,15.70
2019-03-11T09:24:36.587Z,15.80
2019-03-11T09:27:04.698Z,15.70
2019-03-11T09:29:33.819Z,15.70
2019-03-11T09:32:02.023Z,15.60
2019-03-11T09:34:30.267Z,15.60
2019-03-11T09:36:58.485Z,15.70
2019-03-11T09:39:26.631Z,15.60
2019-03-11T09:41:54.765Z,15.70
2019-03-11T09:44:22.929Z,15.60
2019-03-11T09:46:51.412Z,15.60
2019-03-11T09:49:19.570Z,15.70
2019-03-11T09:51:47.666Z,15.70
2019-03-11T09:54:15.857Z,15.70
2019-03-11T09:56:43.995Z,15.70
2019-03-11T09:59:12.368Z,15.80
2019-03-11T10:01:40.476Z,15.80
2019-03-11T10:04:09.222Z,15.90
2019-03-11T10:06:37.396Z,16.00
2019-03-11T10:09:07.166Z,16.10
2019-03-11T10:11:35.775Z,16.10
2019-03-11T10:14:03.985Z,16.30
2019-03-11T10:16:32.347Z,16.50
2019-03-11T10:19:00.509Z,16.60
2019-03-11T10:21:29.197Z,16.80
2019-03-11T10:23:59.211Z,17.10
2019-03-11T10:26:27.277Z,17.00
2019-03-11T10:28:55.386Z,17.20
2019-03-11T10:31:23.647Z,17.00
2019-03-11T10:33:51.747Z,17.00
2019-03-11T10:36:19.907Z,17.10
2019-03-11T10:38:48.099Z,17.10
2019-03-11T10:41:16.366Z,17.40
2019-03-11T10:43:44.654Z,17.60
2019-03-11T10:46:12.907Z,17.70
2019-03-11T10:48:41.065Z,17.90
2019-03-11T10:51:09.219Z,17.80
2019-03-11T10:53:37.423Z,17.80
2019-03-11T10:56:05.673Z,17.90
2019-03-11T10:58:33.888Z,17.80
2019-03-11T11:01:02.149Z,18.00
2019-03-11T11:03:30.961Z,18.10
2019-03-11T11:05:59.316Z,18.00
2019-03-11T11:08:27.466Z,18.00
2019-03-11T11:10:55.974Z,17.90
2019-03-11T11:13:24.542Z,17.90
2019-03-11T11:15:52.695Z,18.10
2019-03-11T11:18:20.886Z,17.60
2019-03-11T11:20:49.154Z,17.70
2019-03-11T11:23:17.362Z,17.70
2019-03-11T11:25:46.067Z,18.00
2019-03-11T11:28:14.274Z,17.90
2019-03-11T11:30:42.645Z,17.90
2019-03-11T11:33:10.858Z,17.90
2019-03-11T11:35:39.125Z,18.10
2019-03-11T11:38:07.853Z,18.40
2019-03-11T11:40:36.007Z,18.40
2019-03-11T11:43:04.272Z,18.00
2019-03-11T11:45:32.668Z,17.80
2019-03-11T11:48:00.977Z,17.70
2019-03-11T11:50:29.274Z,18.00
2019-03-11T11:52:57.653Z,18.00
2019-03-11T11:55:25.947Z,18.10
2019-03-11T11:57:54.310Z,18.40
2019-03-11T12:00:25.451Z,18.50
2019-03-11T12:02:54.011Z,18.60
2019-03-11T12:05:22.262Z,18.50
2019-03-11T12:07:50.547Z,18.50
2019-03-11T12:10:19.110Z,18.60
2019-03-11T12:12:47.367Z,18.60
2019-03-11T12:15:15.682Z,18.70
2019-03-11T12:17:44.027Z,18.80
2019-03-11T12:20:14.730Z,18.90
2019-03-11T12:22:43.028Z,19.00
2019-03-11T12:25:11.447Z,19.10
2019-03-11T12:27:39.698Z,19.00
2019-03-11T12:30:11.719Z,18.70
2019-03-11T12:32:40.123Z,18.90
2019-03-11T12:35:08.791Z,18.90
2019-03-11T12:37:37.162Z,18.80
2019-03-11T12:40:05.684Z,18.70
2019-03-11T12:42:33.842Z,18.50
2019-03-11T12:45:01.961Z,18.50
2019-03-11T12:47:30.106Z,18.50
2019-03-11T12:49:58.208Z,18.70
2019-03-11T12:52:26.354Z,18.80
2019-03-11T12:54:54.453Z,18.80
2019-03-11T12:57:22.626Z,18.70
2019-03-11T12:59:50.726Z,18.50
2019-03-11T13:02:18.999Z,18.40
2019-03-11T13:04:47.109Z,18.50
2019-03-11T13:07:15.427Z,18.70
2019-03-11T13:09:43.583Z,18.50
2019-03-11T13:12:11.736Z,18.50
2019-03-11T13:14:39.925Z,18.40
2019-03-11T13:17:08.197Z,18.50
2019-03-11T13:19:36.289Z,18.40
2019-03-11T13:22:04.547Z,18.30
2019-03-11T13:24:33.443Z,18.10
2019-03-11T13:27:01.628Z,18.00
2019-03-11T13:29:29.744Z,18.10
2019-03-11T13:31:58.050Z,18.20
2019-03-11T13:34:26.151Z,18.20
2019-03-11T13:36:54.707Z,18.10
2019-03-11T13:39:22.882Z,18.10
2019-03-11T13:41:53.077Z,18.10
2019-03-11T13:44:21.236Z,18.30
2019-03-11T13:46:49.456Z,18.20
2019-03-11T13:49:17.795Z,18.10
2019-03-11T13:51:46.016Z,18.10
2019-03-11T13:54:14.378Z,17.90
2019-03-11T13:56:42.582Z,18.00
2019-03-11T13:59:10.747Z,18.00
2019-03-11T14:01:38.963Z,18.10
2019-03-11T14:04:07.204Z,18.00
2019-03-11T14:06:35.307Z,18.10
2019-03-11T14:09:05.522Z,18.10
2019-03-11T14:11:33.744Z,18.10
2019-03-11T14:14:02.106Z,18.10
2019-03-11T14:16:30.623Z,18.00
2019-03-11T14:18:58.783Z,17.90
2019-03-11T14:21:27.117Z,17.90
2019-03-11T14:23:55.273Z,17.90
2019-03-11T14:26:23.529Z,17.90
2019-03-11T14:28:51.702Z,17.70
2019-03-11T14:31:19.799Z,17.60
2019-03-11T14:33:47.952Z,17.50
2019-03-11T14:36:16.157Z,17.60
2019-03-11T14:38:44.899Z,17.60
2019-03-11T14:41:13.214Z,17.50
2019-03-11T14:43:41.379Z,17.40
2019-03-11T14:46:09.671Z,17.40
2019-03-11T14:48:37.930Z,17.20
2019-03-11T14:51:06.131Z,17.10
2019-03-11T14:53:34.295Z,17.10
2019-03-11T14:56:02.410Z,17.10
2019-03-11T14:58:30.654Z,17.00
2019-03-11T15:00:58.850Z,17.00
2019-03-11T15:03:27.099Z,17.10
2019-03-11T15:05:55.207Z,17.10
2019-03-11T15:08:23.521Z,16.90
2019-03-11T15:10:51.747Z,16.90
2019-03-11T15:13:20.294Z,16.80
2019-03-11T15:15:48.941Z,16.60
2019-03-11T15:18:17.388Z,16.70
2019-03-11T15:20:45.546Z,16.70
2019-03-11T15:23:20.399Z,16.70
2019-03-11T15:25:43.802Z,16.60
2019-03-11T15:28:13.215Z,16.50
2019-03-11T15:30:41.771Z,16.50
2019-03-11T15:33:10.075Z,16.40
2019-03-11T15:35:39.424Z,16.30
2019-03-11T15:38:08.439Z,16.50
2019-03-11T15:40:36.599Z,16.50
2019-03-11T15:43:05.194Z,16.40
2019-03-11T15:45:38.687Z,16.40
2019-03-11T15:48:03.501Z,16.30
2019-03-11T15:50:31.803Z,16.50
2019-03-11T15:53:00.021Z,16.30
2019-03-11T15:55:28.390Z,16.30
2019-03-11T15:57:56.705Z,16.30
2019-03-11T16:00:25.203Z,16.10
2019-03-11T16:02:53.522Z,16.20
2019-03-11T16:05:22.017Z,16.20
2019-03-11T16:07:50.501Z,16.30
2019-03-11T16:10:19.060Z,16.50
2019-03-11T16:12:47.883Z,16.50
2019-03-11T16:15:16.909Z,16.50
2019-03-11T16:17:45.324Z,16.50
2019-03-11T16:20:14.221Z,16.40
2019-03-11T16:22:42.431Z,16.50
2019-03-11T16:25:10.979Z,16.50
2019-03-11T16:27:40.043Z,16.40
2019-03-11T16:30:11.480Z,16.20
2019-03-11T16:32:57.093Z,16.00
2019-03-11T16:35:09.858Z,16.00
2019-03-11T16:37:38.164Z,15.70
2019-03-11T16:40:07.228Z,15.60
2019-03-11T16:42:35.441Z,15.40
2019-03-11T16:45:05.164Z,15.30
2019-03-11T16:47:33.776Z,15.30
2019-03-11T16:50:01.927Z,15.20
2019-03-11T16:52:31.584Z,15.20
2019-03-11T16:54:59.734Z,15.00
2019-03-11T16:57:28.299Z,15.00
2019-03-11T16:59:56.555Z,15.00
2019-03-11T17:02:24.668Z,15.00
2019-03-11T17:04:53.026Z,14.90
2019-03-11T17:07:21.136Z,14.70
2019-03-11T17:09:49.405Z,14.80
2019-03-11T17:12:17.987Z,14.90
2019-03-11T17:14:46.637Z,14.80
2019-03-11T17:17:15.360Z,14.90
2019-03-11T17:19:43.668Z,14.80
2019-03-11T17:22:11.923Z,14.70
2019-03-11T17:24:40.334Z,14.60
2019-03-11T17:27:08.478Z,14.40
2019-03-11T17:29:36.582Z,14.40
2019-03-11T17:32:05.085Z,14.30
2019-03-11T17:34:33.198Z,14.30
2019-03-11T17:37:01.366Z,14.30
2019-03-11T17:39:29.579Z,14.30
2019-03-11T17:41:57.931Z,14.30
2019-03-11T17:44:26.050Z,14.40
2019-03-11T17:46:54.208Z,14.30
2019-03-11T17:49:22.306Z,14.40
2019-03-11T17:51:50.894Z,14.30
2019-03-11T17:54:19.099Z,14.30
2019-03-11T17:56:47.256Z,14.30
2019-03-11T17:59:15.370Z,14.10
2019-03-11T18:01:43.645Z,13.80
2019-03-11T18:04:11.876Z,13.80
2019-03-11T18:06:40.578Z,13.70
2019-03-11T18:09:09.138Z,13.60
2019-03-11T18:11:39.964Z,13.60
2019-03-11T18:14:09.458Z,13.60
2019-03-11T18:16:38.163Z,13.40
2019-03-11T18:19:06.726Z,13.30
2019-03-11T18:21:35.087Z,13.20
2019-03-11T18:24:03.296Z,13.20
2019-03-11T18:26:32.945Z,13.10
2019-03-11T18:29:01.933Z,13.00
2019-03-11T18:31:30.481Z,12.90
2019-03-11T18:33:59.786Z,12.90
2019-03-11T18:36:30.669Z,12.80
2019-03-11T18:38:59.424Z,12.70
2019-03-11T18:41:27.662Z,12.70
2019-03-11T18:43:55.779Z,12.60
2019-03-11T18:46:24.483Z,12.50
2019-03-11T18:48:53.064Z,12.50
2019-03-11T18:51:21.247Z,12.50
2019-03-11T18:53:49.402Z,12.40
2019-03-11T18:56:17.506Z,12.30
2019-03-11T18:58:45.813Z,12.40
2019-03-11T19:01:14.066Z,12.40
2019-03-11T19:03:42.665Z,12.40
2019-03-11T19:06:11.699Z,12.30
2019-03-11T19:08:40.151Z,12.30
2019-03-11T19:11:08.461Z,12.30
2019-03-11T19:13:36.769Z,12.30
2019-03-11T19:16:05.435Z,12.20
2019-03-11T19:18:36.338Z,12.20
2019-03-11T19:21:06.063Z,12.20
2019-03-11T19:23:36.192Z,12.20
2019-03-11T19:26:04.805Z,12.20
2019-03-11T19:28:34.186Z,12.20
2019-03-11T19:31:02.490Z,12.20
2019-03-11T19:33:30.764Z,12.30
2019-03-11T19:35:58.974Z,12.40
2019-03-11T19:38:27.968Z,12.40
2019-03-11T19:40:56.139Z,12.50
2019-03-11T19:43:24.520Z,12.40
2019-03-11T19:45:52.668Z,12.30
2019-03-11T19:48:20.993Z,12.20
2019-03-11T19:50:49.647Z,12.00
2019-03-11T19:53:18.428Z,11.80
2019-03-11T19:55:47.640Z,11.70
2019-03-11T19:58:16.086Z,11.70
2019-03-11T20:00:44.308Z,11.60
2019-03-11T20:03:22.952Z,11.60
2019-03-11T20:05:43.209Z,11.70
2019-03-11T20:08:11.577Z,11.60
2019-03-11T20:10:40.050Z,11.60
2019-03-11T20:13:11.305Z,11.50
2019-03-11T20:15:39.507Z,11.40
2019-03-11T20:18:10.098Z,11.30
2019-03-11T20:20:38.451Z,11.20
2019-03-11T20:23:08.615Z,11.10
2019-03-11T20:25:37.041Z,11.10
2019-03-11T20:28:05.499Z,11.10
2019-03-11T20:30:33.925Z,11.10
2019-03-11T20:33:03.993Z,11.00
2019-03-11T20:35:32.615Z,11.10
2019-03-11T20:38:02.092Z,11.10
2019-03-11T20:40:30.463Z,11.10
2019-03-11T20:42:58.714Z,11.10
2019-03-11T20:45:26.914Z,11.00
2019-03-11T20:47:55.788Z,10.90
2019-03-11T20:50:23.998Z,10.90
2019-03-11T20:52:52.243Z,10.90
2019-03-11T20:55:33.926Z,10.90
2019-03-11T20:58:01.143Z,11.00
2019-03-11T21:00:31.739Z,10.90
2019-03-11T21:03:00.117Z,10.90
2019-03-11T21:05:30.542Z,10.80
2019-03-11T21:08:00.203Z,10.80
2019-03-11T21:10:35.987Z,10.80
2019-03-11T21:13:04.713Z,10.80
2019-03-11T21:15:33.539Z,10.70
2019-03-11T21:18:03.697Z,10.60
2019-03-11T21:20:33.989Z,10.60
2019-03-11T21:23:04.580Z,10.60
2019-03-11T21:25:41.319Z,10.50
2019-03-11T21:28:05.365Z,10.60
2019-03-11T21:30:36.894Z,10.60
2019-03-11T21:33:05.312Z,10.50
2019-03-11T21:35:34.369Z,10.50
2019-03-11T21:38:03.135Z,10.50
2019-03-11T21:40:32.661Z,10.50
2019-03-11T21:43:12.229Z,10.30
2019-03-11T21:45:41.626Z,10.00
2019-03-11T21:48:31.654Z,10.20
2019-03-11T21:51:10.581Z,10.10
2019-03-11T21:53:50.880Z,9.90
2019-03-11T21:56:18.938Z,9.70
2019-03-11T21:58:47.477Z,9.60
2019-03-11T22:01:16.881Z,9.50
2019-03-11T22:03:45.586Z,9.40
2019-03-11T22:06:18.378Z,9.30
2019-03-11T22:08:46.782Z,9.30
2019-03-11T22:11:15.103Z,9.30
2019-03-11T22:13:44.233Z,9.30
2019-03-11T22:16:12.389Z,9.30
2019-03-11T22:18:40.801Z,9.40
2019-03-11T22:21:08.941Z,9.40
2019-03-11T22:23:37.059Z,9.30
2019-03-11T22:26:05.977Z,9.20
2019-03-11T22:28:34.106Z,9.20
2019-03-11T22:31:02.349Z,9.10
2019-03-11T22:33:30.450Z,9.00
2019-03-11T22:35:58.585Z,8.90
2019-03-11T22:38:26.786Z,8.80
2019-03-11T22:40:55.066Z,8.70
2019-03-11T22:43:24.795Z,8.70
2019-03-11T22:45:52.953Z,8.70
2019-03-11T22:48:21.191Z,8.70
2019-03-11T22:50:49.379Z,8.70
2019-03-11T22:53:19.849Z,8.70
2019-03-11T22:55:52.386Z,8.60
2019-03-11T22:58:23.770Z,8.50
2019-03-11T23:01:01.451Z,8.60
2019-03-11T23:03:32.386Z,8.50
2019-03-11T23:06:02.164Z,8.50
2019-03-11T23:08:33.994Z,8.20
2019-03-11T23:11:12.093Z,8.10
2019-03-11T23:13:42.741Z,8.00
2019-03-11T23:16:13.894Z,7.90
2019-03-11T23:18:59.694Z,7.90
2019-03-11T23:21:31.858Z,7.90
2019-03-11T23:24:09.909Z,7.80
2019-03-11T23:26:39.118Z,7.70
2019-03-11T23:29:09.320Z,7.70
2019-03-11T23:31:44.997Z,7.60
2019-03-11T23:34:14.220Z,7.40
2019-03-11T23:36:43.265Z,7.30
2019-03-11T23:39:19.830Z,7.30
2019-03-11T23:42:08.115Z,7.20
2019-03-11T23:44:50.598Z,7.10
2019-03-11T23:47:17.538Z,7.00
2019-03-11T23:49:57.362Z,6.80
2019-03-11T23:52:49.186Z,6.60
2019-03-11T23:55:36.390Z,6.60
2019-03-11T23:58:05.359Z,6.60
